Time;durP1;ratioP1;P1;durP2;ratioP2;P2;SDS_P1;SDS_P2;PMS_P1;PMS_P2;Temp;Humidity;BMP_temperature;BMP_pressure;BME280_temperature;BME280_humidity;BME280_pressure;Samples;Min_cycle;Max_cycle;Signal;HPM_P1;HPM_P2
2021/01/21 00:00:15;;;;;;;0.50;0.40;;;4.80;99.90;;;;;;5008690;28;20198;-82
2021/01/21 00:02:41;;;;;;;0.50;0.40;;;4.70;99.90;;;;;;5009878;28;20193;-80
2021/01/21 00:05:07;;;;;;;0.20;0.20;;;4.70;99.90;;;;;;5009511;28;20182;-82
2021/01/21 00:07:33;;;;;;;1.50;1.17;;;4.70;99.90;;;;;;5010607;28;20203;-81
2021/01/21 00:09:58;;;;;;;0.27;0.27;;;4.70;99.90;;;;;;5010190;28;20345;-83
2021/01/21 00:12:25;;;;;;;0.07;0.07;;;4.60;99.90;;;;;;5008208;28;20553;-82
2021/01/21 00:14:50;;;;;;;0.20;0.20;;;4.60;99.90;;;;;;5008299;28;20759;-82
2021/01/21 00:17:16;;;;;;;0.37;0.20;;;4.60;99.90;;;;;;5012088;28;20226;-82
2021/01/21 00:19:42;;;;;;;0.20;0.20;;;4.70;99.90;;;;;;5013245;28;20212;-82
2021/01/21 00:22:07;;;;;;;0.20;0.20;;;4.70;99.90;;;;;;5014287;28;20592;-82
2021/01/21 00:24:33;;;;;;;0.30;0.30;;;4.60;99.90;;;;;;5012705;28;20650;-81
2021/01/21 00:26:58;;;;;;;0.10;0.10;;;4.70;99.90;;;;;;5013796;28;20733;-82
2021/01/21 00:29:24;;;;;;;0.93;0.63;;;4.80;99.90;;;;;;5012541;28;20220;-83
2021/01/21 00:31:50;;;;;;;0.20;0.20;;;4.70;99.90;;;;;;5011225;28;20187;-83
2021/01/21 00:34:16;;;;;;;0.10;0.10;;;4.70;99.90;;;;;;5013653;28;20217;-82
2021/01/21 00:36:42;;;;;;;0.67;0.30;;;4.60;99.90;;;;;;5013818;28;20190;-81
2021/01/21 00:39:08;;;;;;;2.20;0.40;;;4.50;99.90;;;;;;5017590;28;20220;-81
2021/01/21 00:41:33;;;;;;;0.63;0.60;;;4.60;99.90;;;;;;5011799;28;20270;-82
2021/01/21 00:43:59;;;;;;;0.10;0.10;;;4.60;99.90;;;;;;5013948;28;20276;-82
2021/01/21 00:46:24;;;;;;;0.10;0.10;;;4.60;99.90;;;;;;5012687;28;20275;-82
2021/01/21 00:48:50;;;;;;;0.30;0.30;;;4.60;99.90;;;;;;5012401;28;20215;-82
2021/01/21 00:51:15;;;;;;;0.20;0.20;;;4.60;99.90;;;;;;5011095;28;20189;-82
2021/01/21 00:53:41;;;;;;;0.20;0.20;;;4.60;99.90;;;;;;5013506;28;20224;-82
2021/01/21 00:56:06;;;;;;;0.10;0.10;;;4.70;99.90;;;;;;5012083;28;20215;-82
2021/01/21 00:58:32;;;;;;;0.10;0.10;;;4.70;99.90;;;;;;5011995;28;20885;-80
2021/01/21 01:00:58;;;;;;;0.30;0.30;;;4.70;99.90;;;;;;5009593;28;20207;-82
2021/01/21 01:03:23;;;;;;;0.57;0.57;;;4.70;99.90;;;;;;5010850;28;20208;-82
2021/01/21 01:05:49;;;;;;;0.40;0.40;;;4.80;99.90;;;;;;5012349;28;20246;-82
2021/01/21 01:08:14;;;;;;;0.20;0.20;;;4.90;99.90;;;;;;5012124;28;20253;-82
2021/01/21 01:10:40;;;;;;;0.10;0.10;;;5.00;99.90;;;;;;5010170;28;20192;-82
2021/01/21 01:13:06;;;;;;;0.10;0.10;;;5.10;99.90;;;;;;5013123;28;20185;-82
2021/01/21 01:15:33;;;;;;;0.30;0.30;;;5.20;99.90;;;;;;5012114;28;20436;-81
2021/01/21 01:17:59;;;;;;;0.30;0.30;;;5.20;99.90;;;;;;5012856;28;20217;-82
2021/01/21 01:20:25;;;;;;;0.47;0.43;;;5.00;99.90;;;;;;5007678;28;20221;-83
2021/01/21 01:22:52;;;;;;;0.30;0.30;;;5.10;99.90;;;;;;5010753;28;20186;-82
2021/01/21 01:25:19;;;;;;;0.10;0.10;;;5.10;99.90;;;;;;5013160;28;20236;-80
2021/01/21 01:27:45;;;;;;;0.10;0.10;;;5.10;99.90;;;;;;5011358;28;20197;-82
2021/01/21 01:30:12;;;;;;;0.10;0.10;;;5.10;99.90;;;;;;5011372;28;20344;-82
2021/01/21 01:32:38;;;;;;;0.53;0.50;;;5.10;99.90;;;;;;5013135;28;20188;-83
2021/01/21 01:35:05;;;;;;;0.10;0.10;;;5.20;99.90;;;;;;5011822;28;20705;-82
2021/01/21 01:37:31;;;;;;;0.40;0.40;;;5.30;99.90;;;;;;5013153;28;20220;-82
2021/01/21 01:39:56;;;;;;;2.87;0.60;;;5.40;99.90;;;;;;5013547;28;20626;-82
2021/01/21 01:42:22;;;;;;;0.13;0.13;;;5.30;99.90;;;;;;5011601;28;20223;-83
2021/01/21 01:44:47;;;;;;;0.47;0.47;;;5.40;99.90;;;;;;5012585;28;20186;-83
2021/01/21 01:47:13;;;;;;;0.23;0.20;;;5.30;99.90;;;;;;5012461;28;20216;-82
2021/01/21 01:49:39;;;;;;;0.20;0.20;;;5.30;99.90;;;;;;5009751;28;20209;-82
2021/01/21 01:52:05;;;;;;;0.20;0.20;;;5.30;99.90;;;;;;5012373;28;20190;-82
2021/01/21 01:54:31;;;;;;;0.20;0.20;;;5.30;99.90;;;;;;5011509;28;20210;-82
2021/01/21 01:56:58;;;;;;;0.27;0.27;;;5.20;99.90;;;;;;5011821;28;20522;-80
2021/01/21 01:59:24;;;;;;;0.13;0.13;;;5.30;99.90;;;;;;5010689;28;20821;-83
2021/01/21 02:01:50;;;;;;;0.40;0.40;;;5.20;99.90;;;;;;5009879;28;20276;-82
2021/01/21 02:04:16;;;;;;;0.10;0.10;;;5.30;99.90;;;;;;5012335;28;20209;-82
2021/01/21 02:06:41;;;;;;;2.10;0.73;;;5.30;99.90;;;;;;5011447;28;20669;-85
2021/01/21 02:09:08;;;;;;;0.60;0.40;;;5.40;99.90;;;;;;5011961;28;20202;-85
2021/01/21 02:11:49;;;;;;;0.47;0.47;;;5.40;99.90;;;;;;5010374;28;20215;-83
2021/01/21 02:14:48;;;;;;;0.30;0.30;;;5.50;99.90;;;;;;5011945;28;20207;-83
2021/01/21 02:17:23;;;;;;;0.10;0.10;;;5.70;99.90;;;;;;5011050;28;20180;-83
2021/01/21 02:20:19;;;;;;;0.20;0.20;;;5.80;99.90;;;;;;5009814;28;20591;-82
2021/01/21 02:22:53;;;;;;;0.67;0.47;;;5.90;99.90;;;;;;5001235;28;20560;-82
2021/01/21 02:25:24;;;;;;;0.40;0.40;;;6.00;99.90;;;;;;5011732;28;20185;-82
2021/01/21 02:28:07;;;;;;;0.23;0.23;;;5.90;99.90;;;;;;5011931;28;20229;-82
2021/01/21 02:30:51;;;;;;;0.20;0.20;;;6.00;99.90;;;;;;5009053;28;20198;-81
2021/01/21 02:33:54;;;;;;;0.10;0.10;;;6.00;99.90;;;;;;5008727;28;20194;-83
2021/01/21 02:36:23;;;;;;;0.20;0.20;;;6.10;99.90;;;;;;5009970;28;20210;-82
2021/01/21 02:38:52;;;;;;;0.57;0.57;;;6.20;99.90;;;;;;5007156;28;20218;-81
2021/01/21 02:41:17;;;;;;;0.33;0.33;;;6.30;99.90;;;;;;5008257;28;20219;-81
2021/01/21 02:43:49;;;;;;;0.30;0.30;;;6.30;99.90;;;;;;5010324;28;20195;-82
2021/01/21 02:46:15;;;;;;;0.10;0.10;;;6.40;99.90;;;;;;5009807;28;20595;-81
2021/01/21 02:48:40;;;;;;;4.27;0.23;;;6.50;99.90;;;;;;5011647;28;20222;-82
2021/01/21 02:51:24;;;;;;;0.20;0.10;;;6.60;99.90;;;;;;5010403;28;20269;-82
2021/01/21 02:54:01;;;;;;;0.40;0.40;;;6.60;99.90;;;;;;5011158;28;20230;-82
2021/01/21 02:56:31;;;;;;;0.20;0.20;;;6.60;99.90;;;;;;5011231;28;20194;-82
2021/01/21 02:59:01;;;;;;;0.30;0.30;;;6.60;99.90;;;;;;5009940;28;20211;-82
2021/01/21 03:01:26;;;;;;;0.20;0.20;;;6.70;99.90;;;;;;5008704;28;20683;-82
2021/01/21 03:03:54;;;;;;;0.10;0.10;;;6.80;99.90;;;;;;5011095;28;20187;-80
2021/01/21 03:06:21;;;;;;;0.13;0.13;;;6.80;99.90;;;;;;5011551;28;20187;-82
2021/01/21 03:08:47;;;;;;;0.20;0.20;;;6.90;99.90;;;;;;5011191;28;20290;-82
2021/01/21 03:11:14;;;;;;;0.10;0.10;;;6.90;99.90;;;;;;5010705;28;20263;-82
2021/01/21 03:13:49;;;;;;;0.30;0.30;;;6.90;99.90;;;;;;5010787;28;20221;-82
2021/01/21 03:16:15;;;;;;;0.17;0.17;;;6.90;99.90;;;;;;5009595;28;20189;-81
2021/01/21 03:18:41;;;;;;;0.50;0.50;;;6.90;99.90;;;;;;5010797;28;20210;-82
2021/01/21 03:21:06;;;;;;;0.17;0.13;;;6.90;99.90;;;;;;5010052;28;20286;-82
2021/01/21 03:23:41;;;;;;;0.10;0.10;;;6.90;99.90;;;;;;5009773;28;20226;-81
2021/01/21 03:26:10;;;;;;;0.30;0.30;;;6.90;99.90;;;;;;5005936;28;20294;-80
2021/01/21 03:28:35;;;;;;;0.20;0.20;;;6.80;99.90;;;;;;5005752;28;20242;-82
2021/01/21 03:31:01;;;;;;;0.30;0.30;;;6.80;99.90;;;;;;5010142;28;20199;-82
2021/01/21 03:33:27;;;;;;;0.10;0.10;;;6.90;99.90;;;;;;5009942;28;20217;-82
2021/01/21 03:35:52;;;;;;;0.73;0.10;;;6.90;99.90;;;;;;5010964;28;20241;-82
2021/01/21 03:38:18;;;;;;;0.40;0.40;;;6.80;99.90;;;;;;5012063;28;20214;-82
2021/01/21 03:40:43;;;;;;;0.20;0.20;;;6.90;99.90;;;;;;5008954;28;20196;-81
2021/01/21 03:43:09;;;;;;;1.30;0.40;;;7.00;99.90;;;;;;5009597;28;20240;-81
2021/01/21 03:45:34;;;;;;;2.63;0.57;;;7.00;99.90;;;;;;5011803;28;20226;-82
2021/01/21 03:48:00;;;;;;;0.20;0.20;;;7.10;99.90;;;;;;5008880;28;20202;-81
2021/01/21 03:50:25;;;;;;;0.13;0.13;;;7.20;99.90;;;;;;5010326;28;20191;-81
2021/01/21 03:52:51;;;;;;;1.03;0.30;;;7.30;99.90;;;;;;5011750;28;20194;-80
2021/01/21 03:55:16;;;;;;;2.47;0.53;;;7.40;99.90;;;;;;5014152;28;20254;-83
2021/01/21 03:57:42;;;;;;;0.20;0.20;;;7.50;99.90;;;;;;5014352;28;20240;-82
2021/01/21 04:00:08;;;;;;;0.20;0.20;;;7.60;99.90;;;;;;5013992;28;20183;-81
2021/01/21 04:02:33;;;;;;;0.10;0.10;;;7.60;99.90;;;;;;5012872;28;20188;-81
2021/01/21 04:04:59;;;;;;;0.40;0.40;;;7.70;99.90;;;;;;5014693;28;20191;-80
2021/01/21 04:07:25;;;;;;;0.30;0.30;;;7.70;99.90;;;;;;5014359;28;20194;-80
2021/01/21 04:09:50;;;;;;;0.43;0.30;;;7.70;99.90;;;;;;5011908;28;20279;-80
2021/01/21 04:12:16;;;;;;;0.17;0.17;;;7.80;99.90;;;;;;5014450;28;20184;-79
2021/01/21 04:14:41;;;;;;;0.20;0.20;;;7.90;99.90;;;;;;5013443;28;20237;-80
2021/01/21 04:17:07;;;;;;;0.10;0.10;;;7.90;99.90;;;;;;5012804;28;20203;-78
2021/01/21 04:19:32;;;;;;;0.20;0.20;;;7.90;99.90;;;;;;5011906;28;20203;-80
2021/01/21 04:21:58;;;;;;;0.10;0.10;;;8.00;99.90;;;;;;5012860;28;20673;-80
2021/01/21 04:24:23;;;;;;;0.30;0.30;;;8.00;99.90;;;;;;5012931;28;20236;-80
2021/01/21 04:26:49;;;;;;;0.47;0.47;;;8.00;99.90;;;;;;5014297;28;20183;-80
2021/01/21 04:29:14;;;;;;;0.43;0.20;;;8.00;99.90;;;;;;5011731;28;20215;-82
2021/01/21 04:31:40;;;;;;;0.20;0.20;;;8.00;99.90;;;;;;5013747;28;20191;-82
2021/01/21 04:34:06;;;;;;;0.00;0.00;;;8.00;99.90;;;;;;5002143;28;20214;-80
2021/01/21 04:36:31;;;;;;;0.17;0.17;;;8.10;99.90;;;;;;5002824;28;20614;-79
2021/01/21 04:38:57;;;;;;;0.10;0.10;;;8.10;99.90;;;;;;5012844;28;20219;-79
2021/01/21 04:41:24;;;;;;;0.57;0.50;;;8.10;99.90;;;;;;5006414;28;20213;-79
2021/01/21 04:43:49;;;;;;;0.23;0.23;;;8.10;99.90;;;;;;5012280;28;20195;-79
2021/01/21 04:46:16;;;;;;;0.10;0.10;;;8.10;99.90;;;;;;5011374;28;20217;-80
2021/01/21 04:48:42;;;;;;;0.13;0.13;;;8.10;99.90;;;;;;5012901;28;20214;-80
2021/01/21 04:51:09;;;;;;;1.03;0.33;;;8.10;99.90;;;;;;5011570;28;20187;-79
2021/01/21 04:53:38;;;;;;;0.50;0.50;;;8.10;99.90;;;;;;5011652;28;20585;-79
2021/01/21 04:56:06;;;;;;;0.10;0.10;;;8.00;99.90;;;;;;5011924;28;20187;-79
2021/01/21 04:58:37;;;;;;;0.23;0.23;;;8.00;99.90;;;;;;5011555;28;20210;-80
2021/01/21 05:01:03;;;;;;;0.40;0.20;;;7.90;99.90;;;;;;5010264;28;20689;-79
2021/01/21 05:03:29;;;;;;;0.10;0.10;;;7.80;99.90;;;;;;5011115;28;20187;-79
2021/01/21 05:05:55;;;;;;;0.10;0.10;;;7.90;99.90;;;;;;5010655;28;20188;-78
2021/01/21 05:08:22;;;;;;;0.30;0.30;;;7.90;99.90;;;;;;5010806;28;20680;-79
2021/01/21 05:10:49;;;;;;;0.27;0.20;;;7.90;99.90;;;;;;5009882;28;20182;-80
2021/01/21 05:13:15;;;;;;;0.10;0.10;;;7.80;99.90;;;;;;5011370;28;20187;-80
2021/01/21 05:15:41;;;;;;;0.30;0.30;;;7.90;99.90;;;;;;5011865;28;20190;-78
2021/01/21 05:18:06;;;;;;;0.00;0.00;;;7.90;99.90;;;;;;5010752;28;20200;-78
2021/01/21 05:20:37;;;;;;;0.20;0.20;;;7.90;99.90;;;;;;5009890;28;20659;-80
2021/01/21 05:23:06;;;;;;;0.10;0.10;;;7.90;99.90;;;;;;5011171;28;20191;-79
2021/01/21 05:25:32;;;;;;;0.10;0.10;;;7.90;99.90;;;;;;5011974;28;20199;-79
2021/01/21 05:28:02;;;;;;;0.20;0.20;;;7.80;99.90;;;;;;5010595;28;20216;-80
2021/01/21 05:30:29;;;;;;;0.47;0.47;;;7.80;99.90;;;;;;5009141;28;20191;-79
2021/01/21 05:32:56;;;;;;;0.30;0.30;;;7.80;99.90;;;;;;5010764;28;20784;-80
2021/01/21 05:35:24;;;;;;;2.40;1.93;;;7.80;99.90;;;;;;5010242;28;20217;-80
2021/01/21 05:37:56;;;;;;;0.10;0.10;;;7.70;99.90;;;;;;5014873;28;20542;-79
2021/01/21 05:40:27;;;;;;;0.10;0.10;;;7.80;99.90;;;;;;5007794;28;20702;-79
2021/01/21 05:42:54;;;;;;;0.10;0.10;;;7.70;99.90;;;;;;5009175;28;20194;-79
2021/01/21 05:45:21;;;;;;;5.73;0.40;;;7.80;99.90;;;;;;5010992;28;20191;-79
2021/01/21 05:48:01;;;;;;;0.43;0.33;;;8.00;99.90;;;;;;5010887;28;20200;-78
2021/01/21 05:50:29;;;;;;;0.00;0.00;;;8.10;99.90;;;;;;5011574;28;20619;-80
2021/01/21 05:52:56;;;;;;;0.00;0.00;;;8.20;99.90;;;;;;5009908;28;20680;-79
2021/01/21 05:55:26;;;;;;;0.07;0.07;;;8.20;99.90;;;;;;5011400;28;20600;-80
2021/01/21 05:57:53;;;;;;;0.10;0.10;;;8.30;99.90;;;;;;5009370;28;20241;-78
2021/01/21 06:00:20;;;;;;;0.57;0.37;;;8.40;99.90;;;;;;5007214;28;20190;-79
2021/01/21 06:02:49;;;;;;;0.23;0.23;;;8.40;99.90;;;;;;5011169;28;20182;-79
2021/01/21 06:05:19;;;;;;;0.10;0.10;;;8.50;99.90;;;;;;5011021;28;20199;-79
2021/01/21 06:07:49;;;;;;;0.10;0.10;;;8.50;99.90;;;;;;5009469;28;20567;-79
2021/01/21 06:10:16;;;;;;;0.10;0.10;;;8.60;99.90;;;;;;5009500;28;20195;-80
2021/01/21 06:12:44;;;;;;;0.10;0.10;;;8.70;99.90;;;;;;5009121;28;20203;-79
2021/01/21 06:15:13;;;;;;;0.00;0.00;;;8.80;99.90;;;;;;5010126;28;20208;-83
2021/01/21 06:17:39;;;;;;;0.10;0.10;;;8.90;99.90;;;;;;5001819;28;20649;-83
2021/01/21 06:20:05;;;;;;;0.20;0.20;;;9.00;99.90;;;;;;5010214;28;20272;-82
2021/01/21 06:22:34;;;;;;;0.13;0.13;;;9.20;99.90;;;;;;5010358;28;20192;-83
2021/01/21 06:25:05;;;;;;;5.97;0.30;;;9.20;99.90;;;;;;5011723;28;20198;-83
2021/01/21 06:27:33;;;;;;;0.20;0.20;;;9.30;99.90;;;;;;5010845;28;20187;-80
2021/01/21 06:30:00;;;;;;;0.30;0.20;;;9.50;99.90;;;;;;5010862;28;20200;-80
2021/01/21 06:32:37;;;;;;;0.10;0.10;;;9.70;99.90;;;;;;5009514;28;20220;-80
2021/01/21 06:35:05;;;;;;;0.20;0.20;;;9.80;99.90;;;;;;5010174;28;20214;-80
2021/01/21 06:37:37;;;;;;;0.10;0.10;;;10.00;99.90;;;;;;5010825;28;20187;-79
2021/01/21 06:40:07;;;;;;;0.10;0.10;;;10.10;99.90;;;;;;5010094;28;20209;-80
2021/01/21 06:42:41;;;;;;;0.10;0.10;;;10.20;99.90;;;;;;5005708;28;20259;-80
2021/01/21 06:45:08;;;;;;;0.03;0.03;;;10.50;99.90;;;;;;4999071;28;20199;-81
2021/01/21 06:47:34;;;;;;;0.10;0.10;;;10.70;99.90;;;;;;5010302;28;20202;-80
2021/01/21 06:50:04;;;;;;;0.00;0.00;;;10.90;99.90;;;;;;5009785;28;20193;-79
2021/01/21 06:52:38;;;;;;;0.20;0.20;;;11.10;99.90;;;;;;5009254;28;20194;-80
2021/01/21 06:55:08;;;;;;;0.10;0.10;;;11.20;99.90;;;;;;5010569;28;20225;-80
2021/01/21 06:57:34;;;;;;;0.10;0.10;;;11.30;99.90;;;;;;5009762;28;20193;-79
2021/01/21 07:00:00;;;;;;;0.10;0.10;;;11.40;99.90;;;;;;5008661;28;20603;-79
2021/01/21 07:02:51;;;;;;;0.00;0.00;;;11.40;99.90;;;;;;5006697;28;20618;-79
2021/01/21 07:05:22;;;;;;;0.03;0.03;;;11.40;99.90;;;;;;5010104;28;20547;-81
2021/01/21 07:07:53;;;;;;;2.67;0.77;;;11.50;99.90;;;;;;5001966;28;20194;-79
2021/01/21 07:10:29;;;;;;;0.10;0.10;;;11.50;99.90;;;;;;5003255;28;20191;-80
2021/01/21 07:12:56;;;;;;;0.07;0.07;;;11.60;99.90;;;;;;5010163;28;20241;-80
2021/01/21 07:15:44;;;;;;;0.10;0.10;;;11.60;99.90;;;;;;5009029;28;20713;-79
2021/01/21 07:18:19;;;;;;;0.10;0.10;;;11.70;99.90;;;;;;5011304;28;20210;-81
2021/01/21 07:21:02;;;;;;;0.10;0.10;;;11.60;99.90;;;;;;5008386;28;20263;-80
2021/01/21 07:23:52;;;;;;;0.57;0.57;;;11.70;99.90;;;;;;5008556;28;20196;-79
2021/01/21 07:26:26;;;;;;;0.10;0.10;;;11.70;99.90;;;;;;5001565;28;20195;-80
2021/01/21 07:28:55;;;;;;;0.10;0.10;;;11.70;99.90;;;;;;5005119;28;20278;-78
2021/01/21 07:31:21;;;;;;;0.13;0.10;;;11.70;99.90;;;;;;5009078;28;20245;-80
2021/01/21 07:33:47;;;;;;;0.40;0.40;;;11.70;99.90;;;;;;5009402;28;20217;-80
2021/01/21 07:36:28;;;;;;;0.10;0.10;;;11.70;99.90;;;;;;5009948;28;20191;-79
2021/01/21 07:38:54;;;;;;;0.00;0.00;;;11.70;99.90;;;;;;5012531;28;20585;-81
2021/01/21 07:41:41;;;;;;;0.00;0.00;;;11.80;99.90;;;;;;5007869;28;20184;-79
2021/01/21 07:44:07;;;;;;;0.10;0.10;;;11.80;99.90;;;;;;5006108;28;20191;-80
2021/01/21 07:46:33;;;;;;;0.10;0.10;;;11.80;99.90;;;;;;5008178;28;20612;-80
2021/01/21 07:49:25;;;;;;;0.20;0.20;;;11.80;99.90;;;;;;5007146;28;20203;-79
2021/01/21 07:52:05;;;;;;;0.10;0.10;;;11.80;99.90;;;;;;4997683;28;20185;-79
2021/01/21 07:54:45;;;;;;;0.33;0.33;;;11.80;99.90;;;;;;5010287;28;20213;-81
2021/01/21 07:57:10;;;;;;;0.33;0.33;;;11.80;99.90;;;;;;5008592;28;20179;-81
2021/01/21 07:59:55;;;;;;;0.10;0.10;;;11.70;99.90;;;;;;5008258;28;20210;-79
2021/01/21 08:02:20;;;;;;;0.17;0.17;;;11.70;99.90;;;;;;5009712;28;20179;-80
2021/01/21 08:05:00;;;;;;;0.30;0.30;;;11.60;99.90;;;;;;5008967;28;20195;-81
2021/01/21 08:07:49;;;;;;;0.10;0.10;;;11.50;99.90;;;;;;5006794;28;20198;-78
2021/01/21 08:10:25;;;;;;;0.10;0.10;;;11.50;99.90;;;;;;5000247;28;20654;-80
2021/01/21 08:12:57;;;;;;;0.10;0.10;;;11.50;99.90;;;;;;5000342;28;20183;-78
2021/01/21 08:15:24;;;;;;;0.20;0.20;;;11.40;99.90;;;;;;5010336;28;20324;-79
2021/01/21 08:17:51;;;;;;;0.10;0.10;;;11.40;99.90;;;;;;5008783;28;20201;-80
2021/01/21 08:20:24;;;;;;;0.10;0.10;;;11.40;99.90;;;;;;5008886;28;20187;-80
2021/01/21 08:22:54;;;;;;;0.07;0.07;;;11.40;99.90;;;;;;5008559;28;20198;-80
2021/01/21 08:25:20;;;;;;;0.10;0.10;;;11.40;99.90;;;;;;5008893;28;20182;-80
2021/01/21 08:27:48;;;;;;;0.10;0.10;;;11.40;99.90;;;;;;5009609;28;20206;-80
2021/01/21 08:30:28;;;;;;;0.00;0.00;;;11.40;99.90;;;;;;5007669;28;20217;-79
2021/01/21 08:33:12;;;;;;;0.10;0.10;;;11.40;99.90;;;;;;5009754;28;20218;-81
2021/01/21 08:35:44;;;;;;;0.10;0.10;;;11.40;99.90;;;;;;5007113;28;20603;-80
2021/01/21 08:38:13;;;;;;;0.10;0.10;;;11.40;99.90;;;;;;5011670;28;20684;-79
2021/01/21 08:40:40;;;;;;;0.33;0.20;;;11.40;99.90;;;;;;5014366;28;20773;-83
2021/01/21 08:43:06;;;;;;;0.10;0.10;;;11.40;99.90;;;;;;5013391;28;20187;-81
2021/01/21 08:45:32;;;;;;;0.10;0.10;;;11.40;99.90;;;;;;5012911;28;20199;-83
2021/01/21 08:47:58;;;;;;;0.10;0.10;;;11.40;99.90;;;;;;5010544;28;20580;-83
2021/01/21 08:50:39;;;;;;;0.40;0.40;;;11.40;99.90;;;;;;5011405;28;20566;-82
2021/01/21 08:53:10;;;;;;;0.10;0.10;;;11.40;99.90;;;;;;5028141;28;20190;-79
2021/01/21 08:55:41;;;;;;;0.10;0.10;;;11.30;99.90;;;;;;5009719;28;20702;-80
2021/01/21 08:58:08;;;;;;;0.10;0.10;;;11.30;99.90;;;;;;5011430;28;20752;-79
2021/01/21 09:00:35;;;;;;;0.60;0.60;;;11.20;99.90;;;;;;5012082;28;20659;-80
2021/01/21 09:03:01;;;;;;;0.10;0.10;;;11.20;99.90;;;;;;5012748;28;20262;-80
2021/01/21 09:05:30;;;;;;;0.10;0.10;;;11.10;99.90;;;;;;5012518;28;20272;-82
2021/01/21 09:08:05;;;;;;;0.10;0.10;;;11.10;99.90;;;;;;5011250;28;20585;-82
2021/01/21 09:10:43;;;;;;;0.10;0.10;;;11.10;99.90;;;;;;5010298;28;20276;-80
2021/01/21 09:13:12;;;;;;;0.10;0.10;;;11.10;99.90;;;;;;5008918;28;20189;-80
2021/01/21 09:15:53;;;;;;;0.30;0.30;;;11.10;99.90;;;;;;5007207;28;20586;-79
2021/01/21 09:18:20;;;;;;;0.30;0.30;;;11.00;99.90;;;;;;5004266;28;20217;-80
2021/01/21 09:20:46;;;;;;;0.10;0.10;;;11.00;99.90;;;;;;5008408;28;20293;-80
2021/01/21 09:23:19;;;;;;;0.00;0.00;;;11.00;99.90;;;;;;5009974;28;20185;-80
2021/01/21 09:25:44;;;;;;;0.30;0.20;;;10.90;99.90;;;;;;5009265;28;20318;-80
2021/01/21 09:28:13;;;;;;;0.10;0.10;;;10.90;99.90;;;;;;5005398;28;20702;-79
2021/01/21 09:30:40;;;;;;;0.40;0.40;;;10.70;99.90;;;;;;5008269;28;20679;-80
2021/01/21 09:33:06;;;;;;;0.00;0.00;;;10.60;99.90;;;;;;5006133;28;20555;-79
2021/01/21 09:35:32;;;;;;;0.10;0.10;;;10.50;99.90;;;;;;5003010;28;20225;-80
2021/01/21 09:37:59;;;;;;;0.10;0.10;;;10.30;99.90;;;;;;5008472;28;20199;-79
2021/01/21 09:40:30;;;;;;;0.10;0.10;;;9.90;99.90;;;;;;5009825;28;20194;-82
2021/01/21 09:42:58;;;;;;;0.10;0.10;;;9.70;99.90;;;;;;5010381;28;20227;-81
2021/01/21 09:45:25;;;;;;;0.10;0.10;;;9.60;99.90;;;;;;5011558;28;20200;-80
2021/01/21 09:47:51;;;;;;;0.10;0.10;;;9.50;99.90;;;;;;5007577;28;20185;-80
2021/01/21 09:50:18;;;;;;;0.10;0.10;;;9.50;99.90;;;;;;5003899;28;20773;-80
2021/01/21 09:52:44;;;;;;;0.10;0.10;;;9.40;99.90;;;;;;5009605;28;20673;-79
2021/01/21 09:55:11;;;;;;;0.10;0.10;;;9.30;99.90;;;;;;5006380;28;20200;-78
2021/01/21 09:57:39;;;;;;;0.50;0.30;;;9.30;99.90;;;;;;5009174;28;20194;-80
2021/01/21 10:00:05;;;;;;;0.07;0.07;;;9.20;99.90;;;;;;5010840;28;20640;-80
2021/01/21 10:02:31;;;;;;;0.10;0.10;;;9.20;99.90;;;;;;5010286;28;20195;-80
2021/01/21 10:04:56;;;;;;;0.10;0.10;;;9.10;99.90;;;;;;5009150;28;20192;-78
2021/01/21 10:07:22;;;;;;;0.00;0.00;;;9.10;99.90;;;;;;5009357;28;20220;-80
2021/01/21 10:09:47;;;;;;;0.10;0.10;;;9.00;99.90;;;;;;5011821;28;20220;-80
2021/01/21 10:12:13;;;;;;;0.10;0.10;;;9.00;99.90;;;;;;5013070;28;20588;-81
2021/01/21 10:14:39;;;;;;;0.10;0.10;;;9.00;99.90;;;;;;5007781;28;20289;-80
2021/01/21 10:17:07;;;;;;;0.73;0.50;;;9.00;99.90;;;;;;5007871;28;20192;-79
2021/01/21 10:19:33;;;;;;;0.67;0.67;;;9.00;99.90;;;;;;5005098;28;20225;-78
2021/01/21 10:21:59;;;;;;;0.00;0.00;;;9.10;99.90;;;;;;5006044;28;20671;-80
2021/01/21 10:24:25;;;;;;;0.10;0.10;;;9.20;99.90;;;;;;5004740;28;20194;-80
2021/01/21 10:26:51;;;;;;;0.10;0.10;;;9.20;99.90;;;;;;5007801;28;20179;-79
2021/01/21 10:29:17;;;;;;;0.00;0.00;;;9.20;99.90;;;;;;5006915;28;20208;-80
2021/01/21 10:31:42;;;;;;;0.23;0.23;;;9.20;99.90;;;;;;5007434;28;20199;-81
2021/01/21 10:34:08;;;;;;;0.10;0.10;;;9.20;99.90;;;;;;5008069;28;20218;-81
2021/01/21 10:36:35;;;;;;;0.10;0.10;;;9.20;99.90;;;;;;5004531;28;20189;-79
2021/01/21 10:39:00;;;;;;;0.37;0.37;;;9.30;99.90;;;;;;5009347;28;20286;-81
2021/01/21 10:41:26;;;;;;;0.07;0.07;;;9.30;99.90;;;;;;5007695;28;20647;-81
2021/01/21 10:43:53;;;;;;;0.10;0.10;;;9.40;99.90;;;;;;5006851;28;20236;-81
2021/01/21 10:46:19;;;;;;;0.00;0.00;;;9.50;99.90;;;;;;5007299;28;20217;-81
2021/01/21 10:48:45;;;;;;;1.13;0.40;;;9.40;99.90;;;;;;5004559;28;20255;-81
2021/01/21 10:51:10;;;;;;;0.10;0.10;;;9.40;99.90;;;;;;5001004;28;20208;-81
2021/01/21 10:53:36;;;;;;;0.10;0.10;;;9.50;99.90;;;;;;5008442;28;20274;-79
2021/01/21 10:56:02;;;;;;;0.03;0.03;;;9.70;99.90;;;;;;5008803;28;20181;-81
2021/01/21 10:58:27;;;;;;;0.10;0.10;;;9.80;99.90;;;;;;5023790;28;20209;-81
2021/01/21 11:00:53;;;;;;;0.00;0.00;;;10.00;99.90;;;;;;5009957;28;20670;-81
2021/01/21 11:03:19;;;;;;;0.10;0.10;;;10.10;99.90;;;;;;5009803;28;20597;-81
2021/01/21 11:05:45;;;;;;;0.00;0.00;;;10.10;99.90;;;;;;5009209;28;20195;-81
2021/01/21 11:08:11;;;;;;;0.10;0.10;;;10.10;99.90;;;;;;5009643;28;20220;-81
2021/01/21 11:10:38;;;;;;;0.23;0.23;;;10.00;99.90;;;;;;5008929;28;20186;-81
2021/01/21 11:13:04;;;;;;;0.10;0.10;;;9.90;99.90;;;;;;5010725;28;20183;-81
2021/01/21 11:15:30;;;;;;;0.10;0.10;;;9.80;99.90;;;;;;5005966;28;20602;-81
2021/01/21 11:17:56;;;;;;;0.10;0.10;;;9.70;99.90;;;;;;5009844;28;20205;-80
2021/01/21 11:20:22;;;;;;;0.10;0.10;;;9.80;99.90;;;;;;5005724;28;20684;-80
2021/01/21 11:22:48;;;;;;;0.10;0.10;;;9.80;99.90;;;;;;5007430;28;20767;-81
2021/01/21 11:25:14;;;;;;;0.10;0.10;;;9.70;99.90;;;;;;5011771;28;20210;-80
2021/01/21 11:27:40;;;;;;;0.07;0.07;;;9.70;99.90;;;;;;5003270;28;20548;-79
2021/01/21 11:30:08;;;;;;;0.10;0.10;;;9.60;99.90;;;;;;5009331;28;20179;-80
2021/01/21 11:32:34;;;;;;;0.10;0.10;;;9.70;99.90;;;;;;5009802;28;20262;-81
2021/01/21 11:35:01;;;;;;;0.10;0.10;;;9.70;99.90;;;;;;5011456;28;20645;-81
2021/01/21 11:37:27;;;;;;;0.03;0.03;;;9.70;99.90;;;;;;5004395;28;20186;-80
2021/01/21 11:39:56;;;;;;;0.10;0.10;;;9.70;99.90;;;;;;5006324;28;20218;-81
2021/01/21 11:42:22;;;;;;;0.20;0.20;;;9.70;99.90;;;;;;5007740;28;20182;-80
2021/01/21 11:44:48;;;;;;;1.43;0.73;;;9.70;99.90;;;;;;5008252;28;20192;-79
2021/01/21 11:47:14;;;;;;;0.10;0.10;;;9.70;99.90;;;;;;5007686;28;20268;-79
2021/01/21 11:49:40;;;;;;;0.10;0.10;;;9.70;99.90;;;;;;5008816;28;20203;-80
2021/01/21 11:52:05;;;;;;;0.10;0.10;;;9.80;99.90;;;;;;5006395;28;20190;-79
2021/01/21 11:54:31;;;;;;;0.10;0.10;;;9.70;99.90;;;;;;5005917;28;20593;-81
2021/01/21 11:56:56;;;;;;;0.10;0.10;;;9.70;99.90;;;;;;5008949;28;20553;-80
2021/01/21 11:59:22;;;;;;;0.10;0.10;;;9.70;99.90;;;;;;5009538;28;20269;-81
2021/01/21 12:01:47;;;;;;;0.10;0.10;;;9.60;99.90;;;;;;5005086;28;20202;-81
2021/01/21 12:04:13;;;;;;;0.00;0.00;;;9.60;99.90;;;;;;5007012;28;20184;-81
2021/01/21 12:06:39;;;;;;;0.37;0.37;;;9.60;99.90;;;;;;5009325;28;20189;-81
2021/01/21 12:09:06;;;;;;;0.60;0.60;;;9.60;99.90;;;;;;5009811;28;20216;-81
2021/01/21 12:11:32;;;;;;;0.10;0.10;;;9.60;99.90;;;;;;5007853;28;20557;-81
2021/01/21 12:13:58;;;;;;;0.10;0.10;;;9.50;99.90;;;;;;5013693;28;20215;-80
2021/01/21 12:16:24;;;;;;;0.00;0.00;;;9.40;99.90;;;;;;5014228;28;20676;-80
2021/01/21 12:18:49;;;;;;;0.10;0.10;;;9.40;99.90;;;;;;5011603;28;20302;-81
2021/01/21 12:21:15;;;;;;;0.00;0.00;;;9.40;99.90;;;;;;5013360;28;20648;-81
2021/01/21 12:23:41;;;;;;;0.20;0.20;;;9.40;99.90;;;;;;5009657;28;20181;-80
2021/01/21 12:26:07;;;;;;;0.10;0.10;;;9.50;99.90;;;;;;5008511;28;20661;-80
2021/01/21 12:28:36;;;;;;;0.10;0.10;;;9.50;99.90;;;;;;5014848;28;20678;-80
2021/01/21 12:31:02;;;;;;;0.10;0.10;;;9.60;99.90;;;;;;5010817;28;20271;-80
2021/01/21 12:33:28;;;;;;;0.10;0.10;;;9.60;99.90;;;;;;5013703;28;20192;-80
2021/01/21 12:35:54;;;;;;;0.10;0.10;;;9.60;99.90;;;;;;5012929;28;20242;-80
2021/01/21 12:38:20;;;;;;;0.20;0.20;;;9.70;99.90;;;;;;5010417;28;20208;-80
2021/01/21 12:40:45;;;;;;;0.10;0.10;;;9.50;99.90;;;;;;5012380;28;20192;-81
2021/01/21 12:43:11;;;;;;;0.10;0.10;;;9.60;99.90;;;;;;5008116;28;20191;-81
2021/01/21 12:45:37;;;;;;;0.10;0.10;;;9.70;99.90;;;;;;5013158;28;20233;-81
2021/01/21 12:48:03;;;;;;;0.37;0.20;;;9.70;99.90;;;;;;5013179;28;20219;-80
2021/01/21 12:50:29;;;;;;;0.10;0.10;;;9.70;99.90;;;;;;5039591;28;20333;-81
2021/01/21 12:52:54;;;;;;;0.10;0.10;;;9.60;99.90;;;;;;5014573;28;20207;-80
2021/01/21 12:55:20;;;;;;;0.10;0.10;;;9.60;99.90;;;;;;5013596;28;20586;-81
2021/01/21 12:57:47;;;;;;;0.10;0.10;;;9.60;99.90;;;;;;5014597;28;20774;-80
2021/01/21 13:00:14;;;;;;;0.10;0.10;;;9.60;99.90;;;;;;5012941;28;20608;-80